aviador You're here:

EPKT Decoded Metar

KATOWICE in POLAND
Report Time2017-08-20 18:30:00
UTC Time2017-08-20 19:04:41
Flight Rules vfr VFR
Wind160° at 05 kt
W.Decomp.*RWY 09: 2.0 kt HW 4.6 kt RCW
W.Rank160° ranks 35
Current wind is above 160° avg. (4.9)
Visibility9000 m
Phenomena:N/A
Clouds:N/A
Expected CloudBase > 400 ft AGL from Temp-Dew spread
CeilingNone
Temp14°C (ISA +1)
Dew Point13°C (94% RH)
AAT13.1°C
QNH1021 hPa
Density Alt968 ft
Elevation932 ft
Report Wrong Elevation
Raw Report
EPKT 201830Z 16005KT 130V190 9000 NSC 14/13 Q1021=

Extra information for EPKT:More info

Metar Taf Metar & Taf Last 4 Metars F.Rules Stats Wind Profile Meteogram Temp Stats Airport Information Weather charts Add Link Nearby VenuesMetar ALERT Operation Metar Decoded Social comments